createdAt,value
2023-03-20T00:01:44.397Z,106.50
2023-03-20T00:05:09.098Z,103.40
2023-03-20T00:08:29.607Z,89.60
2023-03-20T00:12:07.989Z,52.00
2023-03-20T00:15:36.939Z,53.90
2023-03-20T00:18:46.639Z,48.90
2023-03-20T00:22:16.346Z,44.40
2023-03-20T00:25:54.659Z,41.20
2023-03-20T00:28:59.592Z,38.60
2023-03-20T00:32:14.613Z,37.70
2023-03-20T00:35:36.293Z,38.40
2023-03-20T00:39:08.842Z,34.70
2023-03-20T00:42:24.353Z,31.30
2023-03-20T00:45:38.708Z,29.90
2023-03-20T00:49:08.330Z,34.30
2023-03-20T00:52:08.349Z,29.90
2023-03-20T00:55:27.202Z,38.30
2023-03-20T00:58:49.342Z,33.70
2023-03-20T01:02:01.469Z,37.00
2023-03-20T01:08:47.658Z,45.80
2023-03-20T01:12:02.931Z,37.30
2023-03-20T01:15:22.935Z,36.70
2023-03-20T01:18:43.997Z,38.40
2023-03-20T01:21:53.057Z,31.10
2023-03-20T01:25:04.134Z,33.20
2023-03-20T01:28:32.825Z,31.70
2023-03-20T01:31:42.793Z,38.20
2023-03-20T01:34:53.420Z,36.80
2023-03-20T01:38:19.283Z,23.00
2023-03-20T01:41:54.596Z,22.00
2023-03-20T01:45:23.715Z,19.90
2023-03-20T01:48:45.544Z,17.20
2023-03-20T01:52:05.434Z,13.70
2023-03-20T01:55:08.520Z,11.10
2023-03-20T01:58:33.217Z,12.60
2023-03-20T02:01:48.494Z,12.30
2023-03-20T02:04:41.881Z,13.10
2023-03-20T02:08:03.069Z,12.50
2023-03-20T02:11:28.389Z,14.40
2023-03-20T02:14:37.929Z,12.50
2023-03-20T02:17:54.736Z,15.30
2023-03-20T02:21:33.982Z,10.90
2023-03-20T02:25:02.472Z,11.60
2023-03-20T02:28:27.149Z,12.00
2023-03-20T02:31:54.820Z,12.20
2023-03-20T02:35:38.553Z,11.70
2023-03-20T02:39:01.367Z,10.90
2023-03-20T02:42:23.555Z,9.40
2023-03-20T02:46:10.598Z,11.30
2023-03-20T02:49:52.579Z,9.40
2023-03-20T02:53:12.052Z,9.20
2023-03-20T02:56:50.265Z,8.50
2023-03-20T03:00:27.359Z,9.20
2023-03-20T03:03:52.765Z,10.30
2023-03-20T03:13:36.962Z,8.30
2023-03-20T03:16:41.891Z,10.00
2023-03-20T03:20:14.473Z,8.90
2023-03-20T03:23:29.949Z,9.60
2023-03-20T03:26:49.529Z,10.70
2023-03-20T03:29:56.627Z,14.30
2023-03-20T03:33:08.683Z,14.20
2023-03-20T03:40:24.838Z,11.40
2023-03-20T03:43:41.420Z,12.60
2023-03-20T03:46:43.454Z,14.30
2023-03-20T03:50:04.968Z,15.10
2023-03-20T03:53:37.104Z,18.40
2023-03-20T03:56:36.093Z,16.80
2023-03-20T04:00:05.090Z,14.10
2023-03-20T04:03:38.389Z,11.30
2023-03-20T04:06:53.872Z,12.20
2023-03-20T04:10:09.557Z,14.70
2023-03-20T04:13:33.848Z,11.30
2023-03-20T04:16:55.480Z,9.50
2023-03-20T04:20:11.204Z,10.50
2023-03-20T04:23:23.359Z,9.20
2023-03-20T04:26:58.809Z,10.80
2023-03-20T04:30:11.014Z,9.00
2023-03-20T04:37:01.540Z,8.80
2023-03-20T04:40:23.977Z,8.20
2023-03-20T04:43:39.575Z,11.60
2023-03-20T04:47:19.792Z,11.00
2023-03-20T04:50:46.886Z,11.00
2023-03-20T04:53:55.698Z,12.00
2023-03-20T04:57:20.200Z,8.80
2023-03-20T05:00:45.116Z,8.80
2023-03-20T05:04:10.352Z,10.40
2023-03-20T05:07:22.095Z,11.20
2023-03-20T05:10:50.048Z,10.50
2023-03-20T05:14:12.614Z,9.30
2023-03-20T05:17:42.122Z,10.70
2023-03-20T05:21:26.687Z,9.80
2023-03-20T05:25:02.654Z,9.10
2023-03-20T05:28:38.197Z,10.20
2023-03-20T05:32:13.133Z,10.30
2023-03-20T05:35:48.796Z,10.90
2023-03-20T05:39:06.214Z,9.30
2023-03-20T05:42:40.444Z,11.10
2023-03-20T05:46:16.236Z,11.20
2023-03-20T05:49:47.791Z,10.60
2023-03-20T05:53:12.364Z,9.00
2023-03-20T05:56:33.568Z,68.50
2023-03-20T05:59:16.064Z,32.40
2023-03-20T06:02:19.493Z,31.30
2023-03-20T06:04:57.582Z,26.90
2023-03-20T06:07:35.058Z,13.50
2023-03-20T06:10:11.533Z,11.10
2023-03-20T06:12:45.965Z,11.60
2023-03-20T06:15:17.707Z,16.20
2023-03-20T06:18:06.982Z,11.30
2023-03-20T06:20:44.150Z,9.80
2023-03-20T06:23:25.782Z,10.00
2023-03-20T06:25:58.321Z,10.30
2023-03-20T06:28:30.602Z,10.10
2023-03-20T06:31:13.022Z,10.20
2023-03-20T06:33:47.321Z,10.40
2023-03-20T06:36:23.560Z,9.60
2023-03-20T06:38:58.286Z,10.20
2023-03-20T06:41:37.503Z,10.70
2023-03-20T06:44:19.020Z,10.00
2023-03-20T06:47:09.499Z,10.70
2023-03-20T06:49:40.644Z,12.20
2023-03-20T06:52:16.962Z,11.10
2023-03-20T06:54:52.237Z,9.30
2023-03-20T06:57:26.091Z,9.00
2023-03-20T07:00:04.461Z,11.20
2023-03-20T07:02:36.379Z,21.10
2023-03-20T07:05:14.493Z,26.50
2023-03-20T07:07:46.930Z,22.20
2023-03-20T07:10:19.882Z,16.10
2023-03-20T07:12:55.227Z,13.00
2023-03-20T07:15:27.615Z,14.60
2023-03-20T07:17:59.761Z,12.60
2023-03-20T07:20:31.628Z,12.70
2023-03-20T07:23:03.070Z,11.50
2023-03-20T07:25:42.310Z,11.60
2023-03-20T07:28:13.852Z,10.10
2023-03-20T07:30:51.138Z,12.10
2023-03-20T07:33:32.425Z,10.00
2023-03-20T07:36:07.733Z,11.20
2023-03-20T07:38:39.527Z,10.60
2023-03-20T07:41:15.977Z,11.30
2023-03-20T07:43:57.479Z,20.60
2023-03-20T07:46:41.097Z,14.00
2023-03-20T07:49:15.614Z,12.40
2023-03-20T07:51:48.055Z,14.40
2023-03-20T07:54:25.578Z,14.00
2023-03-20T07:56:59.893Z,13.60
2023-03-20T07:59:33.804Z,15.40
2023-03-20T08:02:25.936Z,15.60
2023-03-20T08:05:06.391Z,13.40
2023-03-20T08:08:06.105Z,16.00
2023-03-20T08:10:48.408Z,12.60
2023-03-20T08:13:35.120Z,13.60
2023-03-20T08:16:25.719Z,13.60
2023-03-20T08:19:02.489Z,16.30
2023-03-20T08:21:50.221Z,16.10
2023-03-20T08:24:40.308Z,13.60
2023-03-20T08:27:31.417Z,12.30
2023-03-20T08:30:11.980Z,13.90
2023-03-20T08:32:48.194Z,10.10
2023-03-20T08:35:33.342Z,11.30
2023-03-20T08:38:12.939Z,16.20
2023-03-20T08:40:50.441Z,13.20
2023-03-20T08:43:28.036Z,13.30
2023-03-20T08:46:00.252Z,19.30
2023-03-20T08:48:44.242Z,20.80
2023-03-20T08:51:21.546Z,13.00
2023-03-20T08:53:53.417Z,17.80
2023-03-20T08:56:26.992Z,10.40
2023-03-20T08:59:05.404Z,11.40
2023-03-20T09:01:48.629Z,14.70
2023-03-20T09:04:21.812Z,13.80
2023-03-20T09:07:04.318Z,12.10
2023-03-20T09:09:41.613Z,11.60
2023-03-20T09:12:15.924Z,16.50
2023-03-20T09:14:47.476Z,15.00
2023-03-20T09:17:18.714Z,12.10
2023-03-20T09:19:50.267Z,12.20
2023-03-20T09:22:22.045Z,9.40
2023-03-20T09:24:58.905Z,10.70
2023-03-20T09:27:33.318Z,9.90
2023-03-20T09:30:07.593Z,14.20
2023-03-20T09:32:39.398Z,11.20
2023-03-20T09:35:17.497Z,12.20
2023-03-20T09:37:48.435Z,11.20
2023-03-20T09:40:28.555Z,12.40
2023-03-20T09:43:21.232Z,10.70
2023-03-20T09:45:59.953Z,10.30
2023-03-20T09:48:54.280Z,7.80
2023-03-20T09:52:05.526Z,7.90
2023-03-20T09:54:53.133Z,9.00
2023-03-20T09:57:27.546Z,9.90
2023-03-20T10:00:04.370Z,10.00
2023-03-20T10:03:02.320Z,10.40
2023-03-20T10:05:38.245Z,9.10
2023-03-20T10:08:17.234Z,9.30
2023-03-20T10:10:55.497Z,11.90
2023-03-20T10:14:02.889Z,9.00
2023-03-20T10:16:52.988Z,11.30
2023-03-20T10:19:32.825Z,9.50
2023-03-20T10:22:29.868Z,10.00
2023-03-20T10:25:02.504Z,9.30
2023-03-20T10:27:43.568Z,11.30
2023-03-20T10:30:38.779Z,10.40
2023-03-20T10:33:36.591Z,12.60
2023-03-20T10:36:29.238Z,9.90
2023-03-20T10:39:35.714Z,10.80
2023-03-20T10:42:06.940Z,9.30
2023-03-20T10:44:42.496Z,12.70
2023-03-20T10:47:14.704Z,13.70
2023-03-20T10:50:18.818Z,20.70
2023-03-20T10:52:48.794Z,22.00
2023-03-20T10:55:21.768Z,12.40
2023-03-20T10:58:19.135Z,11.30
2023-03-20T11:00:51.214Z,11.50
2023-03-20T11:03:25.532Z,12.10
2023-03-20T11:06:22.034Z,12.00
2023-03-20T11:08:52.786Z,11.80
2023-03-20T11:11:29.047Z,12.30
2023-03-20T11:13:58.856Z,12.00
2023-03-20T11:16:37.100Z,11.70
2023-03-20T11:19:07.806Z,11.10
2023-03-20T11:21:46.329Z,12.20
2023-03-20T11:24:26.727Z,13.80
2023-03-20T11:26:56.175Z,13.10
2023-03-20T11:29:27.113Z,13.50
2023-03-20T11:31:56.128Z,15.70
2023-03-20T11:34:27.948Z,13.10
2023-03-20T11:37:09.737Z,11.60
2023-03-20T11:39:40.369Z,11.20
2023-03-20T11:42:23.881Z,10.90
2023-03-20T11:45:01.194Z,12.40
2023-03-20T11:47:33.592Z,11.10
2023-03-20T11:50:05.832Z,10.50
2023-03-20T11:52:37.652Z,11.40
2023-03-20T11:55:24.911Z,9.70
2023-03-20T11:57:59.306Z,11.40
2023-03-20T12:00:39.695Z,11.10
2023-03-20T12:03:33.412Z,11.30
2023-03-20T12:06:02.719Z,11.30
2023-03-20T12:08:32.483Z,10.50
2023-03-20T12:11:07.313Z,11.70
2023-03-20T12:13:43.768Z,12.00
2023-03-20T12:16:15.414Z,11.90
2023-03-20T12:18:56.081Z,11.40
2023-03-20T12:21:41.228Z,11.50
2023-03-20T12:24:30.835Z,12.20
2023-03-20T12:27:01.457Z,14.40
2023-03-20T12:29:35.514Z,12.90
2023-03-20T12:32:11.269Z,11.00
2023-03-20T12:34:50.554Z,12.60
2023-03-20T12:37:22.212Z,11.20
2023-03-20T12:39:54.871Z,17.00
2023-03-20T12:42:52.560Z,14.60
2023-03-20T12:45:23.419Z,7.90
2023-03-20T12:48:30.261Z,9.60
2023-03-20T12:51:21.676Z,12.40
2023-03-20T12:54:03.995Z,13.20
2023-03-20T12:56:41.166Z,11.80
2023-03-20T12:59:14.962Z,5.90
2023-03-20T13:01:57.749Z,7.90
2023-03-20T13:04:44.080Z,8.10
2023-03-20T13:07:24.589Z,8.10
2023-03-20T13:10:02.342Z,8.40
2023-03-20T13:12:57.445Z,8.70
2023-03-20T13:15:41.081Z,10.50
2023-03-20T13:18:22.971Z,11.40
2023-03-20T13:20:53.395Z,11.50
2023-03-20T13:23:31.399Z,10.70
2023-03-20T13:26:05.918Z,12.30
2023-03-20T13:28:46.687Z,14.40
2023-03-20T13:31:38.843Z,10.90
2023-03-20T13:34:26.256Z,11.20
2023-03-20T13:37:21.832Z,11.00
2023-03-20T13:40:25.874Z,9.00
2023-03-20T13:43:16.880Z,3.20
2023-03-20T13:45:48.945Z,2.30
2023-03-20T13:48:29.107Z,1.70
2023-03-20T13:54:22.486Z,11.70
2023-03-20T13:57:45.019Z,6.10
2023-03-20T14:01:24.498Z,3.40
2023-03-20T14:04:34.622Z,2.90
2023-03-20T14:12:02.313Z,3.60
2023-03-20T14:25:49.595Z,4.20
2023-03-20T14:29:12.959Z,3.40
2023-03-20T14:32:22.706Z,3.60
2023-03-20T14:35:37.740Z,2.50
2023-03-20T14:39:08.105Z,4.30
2023-03-20T14:42:32.801Z,3.70
2023-03-20T15:14:22.597Z,9.60
2023-03-20T15:17:52.781Z,9.90
2023-03-20T15:20:58.444Z,10.40
2023-03-20T15:24:18.730Z,9.00
2023-03-20T15:27:18.132Z,8.80
2023-03-20T15:30:37.618Z,8.00
2023-03-20T15:33:45.914Z,9.70
2023-03-20T15:36:52.181Z,22.30
2023-03-20T15:40:14.221Z,19.10
2023-03-20T15:43:43.624Z,17.30
2023-03-20T15:46:56.031Z,13.50
2023-03-20T15:50:19.449Z,14.50
2023-03-20T15:53:28.450Z,17.00
2023-03-20T15:56:49.028Z,15.90
2023-03-20T15:59:46.287Z,18.30
2023-03-20T16:02:49.783Z,17.70
2023-03-20T16:09:30.920Z,15.80
2023-03-20T16:12:58.657Z,16.70
2023-03-20T16:16:18.560Z,15.80
2023-03-20T16:19:10.568Z,18.40
2023-03-20T16:22:54.210Z,19.10
2023-03-20T16:26:10.824Z,21.20
2023-03-20T16:29:23.635Z,19.50
2023-03-20T16:33:03.200Z,22.40
2023-03-20T16:36:26.133Z,20.50
2023-03-20T16:39:40.486Z,17.30
2023-03-20T16:42:54.864Z,17.90
2023-03-20T16:46:05.609Z,17.10
2023-03-20T16:49:29.869Z,19.90
2023-03-20T16:52:45.589Z,17.80
2023-03-20T16:56:02.520Z,15.60
2023-03-20T16:59:03.641Z,15.20
2023-03-20T17:03:08.479Z,16.80
2023-03-20T17:06:38.805Z,17.30
2023-03-20T17:17:22.698Z,15.70
2023-03-20T17:20:42.482Z,15.30
2023-03-20T17:27:25.113Z,18.20
2023-03-20T17:30:55.647Z,18.50
2023-03-20T17:34:30.890Z,19.60
2023-03-20T17:37:58.454Z,18.20
2023-03-20T17:41:28.067Z,19.00
2023-03-20T17:44:38.735Z,19.50
2023-03-20T17:48:00.772Z,21.60
2023-03-20T17:51:27.344Z,21.80
2023-03-20T17:54:57.951Z,22.50
2023-03-20T17:58:28.282Z,17.80
2023-03-20T18:01:49.218Z,17.50
2023-03-20T18:05:14.481Z,23.40
2023-03-20T18:08:36.122Z,21.00
2023-03-20T18:12:07.040Z,21.40
2023-03-20T18:15:44.775Z,22.40
2023-03-20T18:19:21.137Z,20.90
2023-03-20T18:22:39.073Z,21.80
2023-03-20T18:26:20.590Z,23.50
2023-03-20T18:29:58.392Z,23.60
2023-03-20T18:33:42.322Z,29.00
2023-03-20T18:37:31.431Z,41.60
2023-03-20T18:41:05.816Z,33.30
2023-03-20T18:44:37.880Z,51.70
2023-03-20T18:47:58.319Z,39.10
2023-03-20T18:51:35.275Z,25.80
2023-03-20T18:58:30.937Z,25.20
2023-03-20T19:02:20.075Z,25.60
2023-03-20T19:05:52.784Z,25.30
2023-03-20T19:09:21.856Z,24.10
2023-03-20T19:12:43.525Z,22.30
2023-03-20T19:16:14.927Z,26.10
2023-03-20T19:19:25.708Z,24.90
2023-03-20T19:23:14.865Z,26.40
2023-03-20T19:26:46.959Z,23.70
2023-03-20T19:30:17.890Z,23.30
2023-03-20T19:34:07.721Z,19.70
2023-03-20T19:37:57.063Z,23.10
2023-03-20T19:41:05.382Z,20.00
2023-03-20T19:44:30.719Z,19.90
2023-03-20T19:48:08.483Z,21.50
2023-03-20T19:51:29.282Z,22.20
2023-03-20T19:55:03.181Z,23.00
2023-03-20T19:58:40.490Z,22.60
2023-03-20T20:02:09.983Z,19.20
2023-03-20T20:05:49.856Z,17.80
2023-03-20T20:09:39.017Z,18.80
2023-03-20T20:13:27.659Z,16.10
2023-03-20T20:16:53.963Z,17.90
2023-03-20T20:20:40.793Z,18.10
2023-03-20T20:24:16.227Z,19.00
2023-03-20T20:27:45.354Z,20.30
2023-03-20T20:31:24.616Z,18.70
2023-03-20T20:38:48.869Z,19.20
2023-03-20T20:42:17.233Z,18.90
2023-03-20T20:45:53.884Z,19.00
2023-03-20T20:49:43.061Z,19.90
2023-03-20T20:53:02.134Z,21.80
2023-03-20T20:56:50.077Z,20.80
2023-03-20T21:00:49.465Z,17.50
2023-03-20T21:04:29.630Z,18.90
2023-03-20T21:08:07.327Z,17.90
2023-03-20T21:11:47.490Z,19.30
2023-03-20T21:15:35.536Z,17.80
2023-03-20T21:19:24.911Z,21.40
2023-03-20T21:22:59.356Z,18.70
2023-03-20T21:26:42.258Z,19.90
2023-03-20T21:30:15.655Z,21.20
2023-03-20T21:33:40.168Z,17.80
2023-03-20T21:41:05.282Z,22.00
2023-03-20T21:45:35.706Z,24.20
2023-03-20T21:49:40.055Z,20.60
2023-03-20T21:57:07.969Z,20.80
2023-03-20T22:01:14.159Z,21.90
2023-03-20T22:05:02.053Z,20.80
2023-03-20T22:12:23.045Z,23.10
2023-03-20T22:20:19.619Z,25.10
2023-03-20T22:24:17.205Z,21.40
2023-03-20T22:31:47.112Z,20.50
2023-03-20T22:35:51.790Z,19.40
2023-03-20T22:39:22.094Z,25.70
2023-03-20T22:43:05.842Z,24.50
2023-03-20T22:46:44.890Z,26.70
2023-03-20T22:50:19.955Z,23.70
2023-03-20T22:53:41.055Z,21.00
2023-03-20T22:57:01.967Z,22.00
2023-03-20T23:00:25.648Z,22.00
2023-03-20T23:03:56.680Z,25.60
2023-03-20T23:07:22.401Z,20.60
2023-03-20T23:10:47.816Z,19.90
2023-03-20T23:14:08.740Z,22.00
2023-03-20T23:17:33.877Z,24.10
2023-03-20T23:20:51.154Z,22.60
2023-03-20T23:24:18.307Z,22.90
2023-03-20T23:27:50.002Z,24.30
2023-03-20T23:31:07.609Z,20.90
2023-03-20T23:34:31.683Z,19.40
2023-03-20T23:38:11.431Z,22.30
2023-03-20T23:42:12.169Z,21.20
2023-03-20T23:45:43.145Z,24.80
2023-03-20T23:49:12.830Z,26.80
2023-03-20T23:52:38.386Z,26.50
2023-03-20T23:55:57.821Z,26.40
2023-03-20T23:59:37.675Z,24.60
